sensor_id;sensor_type;location;lat;lon;timestamp;P1;durP1;ratioP1;P2;durP2;ratioP2
23402;SDS011;11874;48.228;11.684;2023-12-04T00:01:47;14.30;;;8.63;;
23402;SDS011;11874;48.228;11.684;2023-12-04T00:04:16;18.15;;;8.73;;
23402;SDS011;11874;48.228;11.684;2023-12-04T00:06:45;18.35;;;9.60;;
23402;SDS011;11874;48.228;11.684;2023-12-04T00:09:13;15.15;;;7.82;;
23402;SDS011;11874;48.228;11.684;2023-12-04T00:11:41;15.80;;;7.85;;
23402;SDS011;11874;48.228;11.684;2023-12-04T00:14:09;16.20;;;8.48;;
23402;SDS011;11874;48.228;11.684;2023-12-04T00:16:39;20.38;;;9.55;;
23402;SDS011;11874;48.228;11.684;2023-12-04T00:19:07;17.60;;;9.48;;
23402;SDS011;11874;48.228;11.684;2023-12-04T00:21:36;19.83;;;9.82;;
23402;SDS011;11874;48.228;11.684;2023-12-04T00:24:04;17.65;;;9.60;;
23402;SDS011;11874;48.228;11.684;2023-12-04T00:26:33;20.38;;;9.43;;
23402;SDS011;11874;48.228;11.684;2023-12-04T00:29:01;18.50;;;9.02;;
23402;SDS011;11874;48.228;11.684;2023-12-04T00:31:29;17.45;;;8.57;;
23402;SDS011;11874;48.228;11.684;2023-12-04T00:33:59;21.75;;;9.57;;
23402;SDS011;11874;48.228;11.684;2023-12-04T00:36:27;21.30;;;9.50;;
23402;SDS011;11874;48.228;11.684;2023-12-04T00:38:55;22.65;;;9.65;;
23402;SDS011;11874;48.228;11.684;2023-12-04T00:41:23;21.38;;;9.70;;
23402;SDS011;11874;48.228;11.684;2023-12-04T00:43:51;21.67;;;9.95;;
23402;SDS011;11874;48.228;11.684;2023-12-04T00:46:19;22.63;;;9.85;;
23402;SDS011;11874;48.228;11.684;2023-12-04T00:48:48;18.35;;;9.15;;
23402;SDS011;11874;48.228;11.684;2023-12-04T00:51:17;24.42;;;10.70;;
23402;SDS011;11874;48.228;11.684;2023-12-04T00:53:45;20.05;;;9.18;;
23402;SDS011;11874;48.228;11.684;2023-12-04T00:56:14;16.77;;;8.82;;
23402;SDS011;11874;48.228;11.684;2023-12-04T00:58:42;17.88;;;8.93;;
23402;SDS011;11874;48.228;11.684;2023-12-04T01:01:10;18.92;;;9.07;;
23402;SDS011;11874;48.228;11.684;2023-12-04T01:03:40;15.73;;;8.30;;
23402;SDS011;11874;48.228;11.684;2023-12-04T01:06:10;17.83;;;8.55;;
23402;SDS011;11874;48.228;11.684;2023-12-04T01:08:50;18.73;;;9.23;;
23402;SDS011;11874;48.228;11.684;2023-12-04T01:11:20;17.45;;;8.88;;
23402;SDS011;11874;48.228;11.684;2023-12-04T01:13:48;13.98;;;7.47;;
23402;SDS011;11874;48.228;11.684;2023-12-04T01:16:17;19.23;;;8.52;;
23402;SDS011;11874;48.228;11.684;2023-12-04T01:18:45;17.13;;;7.95;;
23402;SDS011;11874;48.228;11.684;2023-12-04T01:21:13;18.05;;;7.82;;
23402;SDS011;11874;48.228;11.684;2023-12-04T01:23:42;19.48;;;8.82;;
23402;SDS011;11874;48.228;11.684;2023-12-04T01:26:10;17.08;;;8.70;;
23402;SDS011;11874;48.228;11.684;2023-12-04T01:28:39;18.15;;;8.98;;
23402;SDS011;11874;48.228;11.684;2023-12-04T01:31:07;17.70;;;8.95;;
23402;SDS011;11874;48.228;11.684;2023-12-04T01:33:36;13.18;;;7.38;;
23402;SDS011;11874;48.228;11.684;2023-12-04T01:36:05;19.95;;;9.43;;
23402;SDS011;11874;48.228;11.684;2023-12-04T01:38:33;16.40;;;8.70;;
23402;SDS011;11874;48.228;11.684;2023-12-04T01:41:03;15.02;;;8.10;;
23402;SDS011;11874;48.228;11.684;2023-12-04T01:43:32;15.95;;;8.27;;
23402;SDS011;11874;48.228;11.684;2023-12-04T01:46:01;17.58;;;8.50;;
23402;SDS011;11874;48.228;11.684;2023-12-04T01:48:30;17.60;;;8.55;;
23402;SDS011;11874;48.228;11.684;2023-12-04T01:50:58;13.73;;;8.45;;
23402;SDS011;11874;48.228;11.684;2023-12-04T01:53:31;12.90;;;8.15;;
23402;SDS011;11874;48.228;11.684;2023-12-04T01:56:00;17.65;;;8.05;;
23402;SDS011;11874;48.228;11.684;2023-12-04T01:58:29;13.52;;;8.02;;
23402;SDS011;11874;48.228;11.684;2023-12-04T02:00:58;18.30;;;8.40;;
23402;SDS011;11874;48.228;11.684;2023-12-04T02:03:26;14.70;;;8.35;;
23402;SDS011;11874;48.228;11.684;2023-12-04T02:05:55;12.15;;;7.80;;
23402;SDS011;11874;48.228;11.684;2023-12-04T02:08:29;16.00;;;7.68;;
23402;SDS011;11874;48.228;11.684;2023-12-04T02:10:58;16.98;;;9.18;;
23402;SDS011;11874;48.228;11.684;2023-12-04T02:13:26;15.20;;;7.97;;
23402;SDS011;11874;48.228;11.684;2023-12-04T02:15:56;16.63;;;8.48;;
23402;SDS011;11874;48.228;11.684;2023-12-04T02:18:27;19.80;;;7.93;;
23402;SDS011;11874;48.228;11.684;2023-12-04T02:20:56;14.70;;;7.95;;
23402;SDS011;11874;48.228;11.684;2023-12-04T02:23:24;16.63;;;8.75;;
23402;SDS011;11874;48.228;11.684;2023-12-04T02:25:54;12.90;;;6.95;;
23402;SDS011;11874;48.228;11.684;2023-12-04T02:28:29;18.42;;;8.98;;
23402;SDS011;11874;48.228;11.684;2023-12-04T02:31:00;17.67;;;8.38;;
23402;SDS011;11874;48.228;11.684;2023-12-04T02:33:31;15.20;;;7.90;;
23402;SDS011;11874;48.228;11.684;2023-12-04T02:36:03;16.52;;;8.45;;
23402;SDS011;11874;48.228;11.684;2023-12-04T02:38:32;15.73;;;8.10;;
23402;SDS011;11874;48.228;11.684;2023-12-04T02:41:03;16.73;;;8.35;;
23402;SDS011;11874;48.228;11.684;2023-12-04T02:43:31;15.80;;;8.10;;
23402;SDS011;11874;48.228;11.684;2023-12-04T02:46:00;15.48;;;7.72;;
23402;SDS011;11874;48.228;11.684;2023-12-04T02:48:28;18.55;;;8.48;;
23402;SDS011;11874;48.228;11.684;2023-12-04T02:50:57;18.55;;;8.43;;
23402;SDS011;11874;48.228;11.684;2023-12-04T02:53:24;17.38;;;8.68;;
23402;SDS011;11874;48.228;11.684;2023-12-04T02:55:53;17.85;;;8.60;;
23402;SDS011;11874;48.228;11.684;2023-12-04T02:58:22;15.05;;;8.30;;
23402;SDS011;11874;48.228;11.684;2023-12-04T03:00:51;16.48;;;8.20;;
23402;SDS011;11874;48.228;11.684;2023-12-04T03:03:19;16.85;;;8.88;;
23402;SDS011;11874;48.228;11.684;2023-12-04T03:05:47;18.02;;;8.55;;
23402;SDS011;11874;48.228;11.684;2023-12-04T03:08:15;14.20;;;8.05;;
23402;SDS011;11874;48.228;11.684;2023-12-04T03:10:44;14.52;;;7.88;;
23402;SDS011;11874;48.228;11.684;2023-12-04T03:13:11;17.95;;;8.30;;
23402;SDS011;11874;48.228;11.684;2023-12-04T03:15:42;17.15;;;8.65;;
23402;SDS011;11874;48.228;11.684;2023-12-04T03:18:10;19.17;;;8.63;;
23402;SDS011;11874;48.228;11.684;2023-12-04T03:20:39;13.90;;;7.75;;
23402;SDS011;11874;48.228;11.684;2023-12-04T03:23:07;13.77;;;7.93;;
23402;SDS011;11874;48.228;11.684;2023-12-04T03:25:36;18.42;;;8.45;;
23402;SDS011;11874;48.228;11.684;2023-12-04T03:28:05;16.05;;;8.93;;
23402;SDS011;11874;48.228;11.684;2023-12-04T03:30:33;15.90;;;8.43;;
23402;SDS011;11874;48.228;11.684;2023-12-04T03:33:03;20.10;;;8.57;;
23402;SDS011;11874;48.228;11.684;2023-12-04T03:35:32;18.70;;;9.05;;
23402;SDS011;11874;48.228;11.684;2023-12-04T03:38:01;16.10;;;7.72;;
23402;SDS011;11874;48.228;11.684;2023-12-04T03:40:29;20.45;;;8.68;;
23402;SDS011;11874;48.228;11.684;2023-12-04T03:42:57;17.30;;;8.05;;
23402;SDS011;11874;48.228;11.684;2023-12-04T03:45:25;17.23;;;8.45;;
23402;SDS011;11874;48.228;11.684;2023-12-04T03:47:53;14.70;;;8.07;;
23402;SDS011;11874;48.228;11.684;2023-12-04T03:50:23;17.45;;;8.27;;
23402;SDS011;11874;48.228;11.684;2023-12-04T03:52:51;15.80;;;8.00;;
23402;SDS011;11874;48.228;11.684;2023-12-04T03:55:19;17.48;;;8.05;;
23402;SDS011;11874;48.228;11.684;2023-12-04T03:57:47;16.70;;;8.23;;
23402;SDS011;11874;48.228;11.684;2023-12-04T04:00:16;18.60;;;8.35;;
23402;SDS011;11874;48.228;11.684;2023-12-04T04:02:44;17.50;;;8.13;;
23402;SDS011;11874;48.228;11.684;2023-12-04T04:05:13;12.73;;;7.90;;
23402;SDS011;11874;48.228;11.684;2023-12-04T04:07:43;14.07;;;8.02;;
23402;SDS011;11874;48.228;11.684;2023-12-04T04:10:11;17.55;;;8.52;;
23402;SDS011;11874;48.228;11.684;2023-12-04T04:12:39;16.88;;;8.52;;
23402;SDS011;11874;48.228;11.684;2023-12-04T04:15:08;17.17;;;8.45;;
23402;SDS011;11874;48.228;11.684;2023-12-04T04:17:36;17.52;;;8.50;;
23402;SDS011;11874;48.228;11.684;2023-12-04T04:20:05;15.40;;;7.90;;
23402;SDS011;11874;48.228;11.684;2023-12-04T04:22:34;15.63;;;8.43;;
23402;SDS011;11874;48.228;11.684;2023-12-04T04:25:07;13.10;;;7.30;;
23402;SDS011;11874;48.228;11.684;2023-12-04T04:27:36;15.00;;;7.68;;
23402;SDS011;11874;48.228;11.684;2023-12-04T04:30:05;14.05;;;7.75;;
23402;SDS011;11874;48.228;11.684;2023-12-04T04:32:35;17.80;;;7.68;;
23402;SDS011;11874;48.228;11.684;2023-12-04T04:35:03;16.02;;;7.15;;
23402;SDS011;11874;48.228;11.684;2023-12-04T04:37:31;15.15;;;7.35;;
23402;SDS011;11874;48.228;11.684;2023-12-04T04:40:00;17.50;;;7.57;;
23402;SDS011;11874;48.228;11.684;2023-12-04T04:42:30;15.13;;;7.28;;
23402;SDS011;11874;48.228;11.684;2023-12-04T04:44:58;15.50;;;7.07;;
23402;SDS011;11874;48.228;11.684;2023-12-04T04:47:26;14.65;;;7.28;;
23402;SDS011;11874;48.228;11.684;2023-12-04T04:49:54;17.15;;;7.70;;
23402;SDS011;11874;48.228;11.684;2023-12-04T04:52:22;16.40;;;9.20;;
23402;SDS011;11874;48.228;11.684;2023-12-04T04:54:53;8.67;;;4.97;;
23402;SDS011;11874;48.228;11.684;2023-12-04T04:57:22;19.67;;;7.30;;
23402;SDS011;11874;48.228;11.684;2023-12-04T04:59:53;16.80;;;7.50;;
23402;SDS011;11874;48.228;11.684;2023-12-04T05:02:21;17.23;;;8.32;;
23402;SDS011;11874;48.228;11.684;2023-12-04T05:04:49;16.17;;;7.82;;
23402;SDS011;11874;48.228;11.684;2023-12-04T05:07:17;14.48;;;7.43;;
23402;SDS011;11874;48.228;11.684;2023-12-04T05:09:45;13.52;;;6.80;;
23402;SDS011;11874;48.228;11.684;2023-12-04T05:12:13;14.07;;;6.90;;
23402;SDS011;11874;48.228;11.684;2023-12-04T05:14:42;14.88;;;7.32;;
23402;SDS011;11874;48.228;11.684;2023-12-04T05:17:11;12.57;;;7.03;;
23402;SDS011;11874;48.228;11.684;2023-12-04T05:19:39;15.30;;;8.00;;
23402;SDS011;11874;48.228;11.684;2023-12-04T05:22:07;13.75;;;7.75;;
23402;SDS011;11874;48.228;11.684;2023-12-04T05:24:35;16.25;;;7.63;;
23402;SDS011;11874;48.228;11.684;2023-12-04T05:27:04;16.67;;;8.00;;
23402;SDS011;11874;48.228;11.684;2023-12-04T05:29:32;13.23;;;6.93;;
23402;SDS011;11874;48.228;11.684;2023-12-04T05:32:01;12.80;;;6.93;;
23402;SDS011;11874;48.228;11.684;2023-12-04T05:34:30;11.30;;;6.35;;
23402;SDS011;11874;48.228;11.684;2023-12-04T05:36:58;13.95;;;7.45;;
23402;SDS011;11874;48.228;11.684;2023-12-04T05:39:26;17.40;;;8.38;;
23402;SDS011;11874;48.228;11.684;2023-12-04T05:41:55;13.02;;;6.93;;
23402;SDS011;11874;48.228;11.684;2023-12-04T05:44:23;17.95;;;7.90;;
23402;SDS011;11874;48.228;11.684;2023-12-04T05:46:51;13.55;;;6.57;;
23402;SDS011;11874;48.228;11.684;2023-12-04T05:49:19;15.95;;;7.25;;
23402;SDS011;11874;48.228;11.684;2023-12-04T05:51:49;14.25;;;6.75;;
23402;SDS011;11874;48.228;11.684;2023-12-04T05:54:18;11.68;;;6.55;;
23402;SDS011;11874;48.228;11.684;2023-12-04T05:56:46;13.55;;;6.60;;
23402;SDS011;11874;48.228;11.684;2023-12-04T05:59:14;16.65;;;7.53;;
23402;SDS011;11874;48.228;11.684;2023-12-04T06:01:42;15.07;;;7.72;;
23402;SDS011;11874;48.228;11.684;2023-12-04T06:04:10;18.65;;;7.32;;
23402;SDS011;11874;48.228;11.684;2023-12-04T06:06:38;15.63;;;7.45;;
23402;SDS011;11874;48.228;11.684;2023-12-04T06:09:08;13.15;;;7.65;;
23402;SDS011;11874;48.228;11.684;2023-12-04T06:11:36;14.10;;;7.47;;
23402;SDS011;11874;48.228;11.684;2023-12-04T06:14:04;12.68;;;7.20;;
23402;SDS011;11874;48.228;11.684;2023-12-04T06:16:32;14.98;;;6.95;;
23402;SDS011;11874;48.228;11.684;2023-12-04T06:19:00;15.45;;;8.90;;
23402;SDS011;11874;48.228;11.684;2023-12-04T06:21:28;19.48;;;8.95;;
23402;SDS011;11874;48.228;11.684;2023-12-04T06:23:57;15.13;;;7.30;;
23402;SDS011;11874;48.228;11.684;2023-12-04T06:26:27;17.45;;;7.60;;
23402;SDS011;11874;48.228;11.684;2023-12-04T06:28:58;14.48;;;6.90;;
23402;SDS011;11874;48.228;11.684;2023-12-04T06:31:27;15.75;;;7.97;;
23402;SDS011;11874;48.228;11.684;2023-12-04T06:33:56;16.40;;;8.13;;
23402;SDS011;11874;48.228;11.684;2023-12-04T06:36:24;14.07;;;6.90;;
23402;SDS011;11874;48.228;11.684;2023-12-04T06:38:55;15.30;;;7.03;;
23402;SDS011;11874;48.228;11.684;2023-12-04T06:41:24;15.55;;;7.63;;
23402;SDS011;11874;48.228;11.684;2023-12-04T06:43:55;14.57;;;7.32;;
23402;SDS011;11874;48.228;11.684;2023-12-04T06:46:24;14.02;;;8.07;;
23402;SDS011;11874;48.228;11.684;2023-12-04T06:48:57;13.60;;;7.13;;
23402;SDS011;11874;48.228;11.684;2023-12-04T06:51:26;17.50;;;7.78;;
23402;SDS011;11874;48.228;11.684;2023-12-04T06:53:54;15.68;;;6.95;;
23402;SDS011;11874;48.228;11.684;2023-12-04T06:56:22;13.43;;;7.43;;
23402;SDS011;11874;48.228;11.684;2023-12-04T06:58:52;16.23;;;7.80;;
23402;SDS011;11874;48.228;11.684;2023-12-04T07:01:20;19.60;;;8.13;;
23402;SDS011;11874;48.228;11.684;2023-12-04T07:03:49;17.60;;;6.95;;
23402;SDS011;11874;48.228;11.684;2023-12-04T07:06:17;15.80;;;7.53;;
23402;SDS011;11874;48.228;11.684;2023-12-04T07:08:46;14.85;;;7.72;;
23402;SDS011;11874;48.228;11.684;2023-12-04T07:11:14;19.80;;;9.20;;
23402;SDS011;11874;48.228;11.684;2023-12-04T07:13:42;19.25;;;8.65;;
23402;SDS011;11874;48.228;11.684;2023-12-04T07:16:12;15.20;;;7.70;;
23402;SDS011;11874;48.228;11.684;2023-12-04T07:18:40;14.75;;;7.80;;
23402;SDS011;11874;48.228;11.684;2023-12-04T07:21:09;14.65;;;6.95;;
23402;SDS011;11874;48.228;11.684;2023-12-04T07:23:37;15.48;;;6.95;;
23402;SDS011;11874;48.228;11.684;2023-12-04T07:26:05;16.67;;;7.38;;
23402;SDS011;11874;48.228;11.684;2023-12-04T07:28:34;12.05;;;6.90;;
23402;SDS011;11874;48.228;11.684;2023-12-04T07:31:02;16.83;;;7.95;;
23402;SDS011;11874;48.228;11.684;2023-12-04T07:33:32;19.05;;;8.40;;
23402;SDS011;11874;48.228;11.684;2023-12-04T07:36:01;14.68;;;7.10;;
23402;SDS011;11874;48.228;11.684;2023-12-04T07:38:29;15.73;;;8.10;;
23402;SDS011;11874;48.228;11.684;2023-12-04T07:40:57;15.05;;;7.40;;
23402;SDS011;11874;48.228;11.684;2023-12-04T07:43:25;16.23;;;7.15;;
23402;SDS011;11874;48.228;11.684;2023-12-04T07:45:54;15.40;;;8.20;;
23402;SDS011;11874;48.228;11.684;2023-12-04T07:48:22;16.52;;;8.10;;
23402;SDS011;11874;48.228;11.684;2023-12-04T07:50:52;18.55;;;8.07;;
23402;SDS011;11874;48.228;11.684;2023-12-04T07:53:20;15.25;;;7.97;;
23402;SDS011;11874;48.228;11.684;2023-12-04T07:55:49;18.15;;;8.80;;
23402;SDS011;11874;48.228;11.684;2023-12-04T07:58:17;17.05;;;7.35;;
23402;SDS011;11874;48.228;11.684;2023-12-04T08:00:45;13.75;;;7.13;;
23402;SDS011;11874;48.228;11.684;2023-12-04T08:03:13;15.15;;;7.60;;
23402;SDS011;11874;48.228;11.684;2023-12-04T08:05:42;15.35;;;7.88;;
23402;SDS011;11874;48.228;11.684;2023-12-04T08:08:11;15.27;;;8.05;;
23402;SDS011;11874;48.228;11.684;2023-12-04T08:10:39;18.98;;;7.95;;
23402;SDS011;11874;48.228;11.684;2023-12-04T08:13:07;16.77;;;8.68;;
23402;SDS011;11874;48.228;11.684;2023-12-04T08:15:35;14.57;;;7.95;;
23402;SDS011;11874;48.228;11.684;2023-12-04T08:18:03;14.07;;;7.25;;
23402;SDS011;11874;48.228;11.684;2023-12-04T08:20:32;15.95;;;8.02;;
23402;SDS011;11874;48.228;11.684;2023-12-04T08:23:06;18.23;;;8.45;;
23402;SDS011;11874;48.228;11.684;2023-12-04T08:25:36;18.33;;;8.27;;
23402;SDS011;11874;48.228;11.684;2023-12-04T08:28:05;17.98;;;8.32;;
23402;SDS011;11874;48.228;11.684;2023-12-04T08:30:35;19.63;;;8.85;;
23402;SDS011;11874;48.228;11.684;2023-12-04T08:33:04;17.52;;;8.95;;
23402;SDS011;11874;48.228;11.684;2023-12-04T08:35:32;16.00;;;7.40;;
23402;SDS011;11874;48.228;11.684;2023-12-04T08:38:01;16.38;;;8.13;;
23402;SDS011;11874;48.228;11.684;2023-12-04T08:40:29;19.13;;;8.02;;
23402;SDS011;11874;48.228;11.684;2023-12-04T08:42:59;17.92;;;8.40;;
23402;SDS011;11874;48.228;11.684;2023-12-04T08:45:27;15.20;;;7.00;;
23402;SDS011;11874;48.228;11.684;2023-12-04T08:47:55;19.27;;;8.73;;
23402;SDS011;11874;48.228;11.684;2023-12-04T08:50:23;20.75;;;8.98;;
23402;SDS011;11874;48.228;11.684;2023-12-04T08:52:51;18.30;;;7.88;;
23402;SDS011;11874;48.228;11.684;2023-12-04T08:55:20;17.98;;;8.48;;
23402;SDS011;11874;48.228;11.684;2023-12-04T08:57:48;19.10;;;8.75;;
23402;SDS011;11874;48.228;11.684;2023-12-04T09:00:18;16.40;;;8.63;;
23402;SDS011;11874;48.228;11.684;2023-12-04T09:02:46;18.52;;;8.75;;
23402;SDS011;11874;48.228;11.684;2023-12-04T09:05:28;18.70;;;8.15;;
23402;SDS011;11874;48.228;11.684;2023-12-04T09:07:56;20.23;;;8.43;;
23402;SDS011;11874;48.228;11.684;2023-12-04T09:10:45;20.98;;;8.27;;
23402;SDS011;11874;48.228;11.684;2023-12-04T09:13:33;19.08;;;9.45;;
23402;SDS011;11874;48.228;11.684;2023-12-04T09:16:03;16.63;;;8.70;;
23402;SDS011;11874;48.228;11.684;2023-12-04T09:18:32;20.15;;;8.95;;
23402;SDS011;11874;48.228;11.684;2023-12-04T09:21:01;18.33;;;9.07;;
23402;SDS011;11874;48.228;11.684;2023-12-04T09:23:29;18.67;;;8.35;;
23402;SDS011;11874;48.228;11.684;2023-12-04T09:25:58;21.75;;;10.10;;
23402;SDS011;11874;48.228;11.684;2023-12-04T09:28:26;21.00;;;9.73;;
23402;SDS011;11874;48.228;11.684;2023-12-04T09:30:55;18.05;;;9.05;;
23402;SDS011;11874;48.228;11.684;2023-12-04T09:33:25;20.52;;;9.32;;
23402;SDS011;11874;48.228;11.684;2023-12-04T09:35:53;20.23;;;10.73;;
23402;SDS011;11874;48.228;11.684;2023-12-04T09:38:21;21.08;;;10.15;;
23402;SDS011;11874;48.228;11.684;2023-12-04T09:40:49;26.00;;;10.63;;
23402;SDS011;11874;48.228;11.684;2023-12-04T09:43:22;22.58;;;10.07;;
23402;SDS011;11874;48.228;11.684;2023-12-04T09:45:53;21.02;;;10.02;;
23402;SDS011;11874;48.228;11.684;2023-12-04T09:48:21;21.75;;;10.65;;
23402;SDS011;11874;48.228;11.684;2023-12-04T09:50:53;19.40;;;10.02;;
23402;SDS011;11874;48.228;11.684;2023-12-04T09:53:23;23.00;;;10.05;;
23402;SDS011;11874;48.228;11.684;2023-12-04T09:55:54;21.05;;;9.85;;
23402;SDS011;11874;48.228;11.684;2023-12-04T09:58:27;17.42;;;9.95;;
23402;SDS011;11874;48.228;11.684;2023-12-04T10:00:56;21.35;;;10.25;;
23402;SDS011;11874;48.228;11.684;2023-12-04T10:03:26;20.42;;;9.90;;
23402;SDS011;11874;48.228;11.684;2023-12-04T10:05:58;20.60;;;10.20;;
23402;SDS011;11874;48.228;11.684;2023-12-04T10:08:26;17.58;;;9.63;;
23402;SDS011;11874;48.228;11.684;2023-12-04T10:10:54;22.48;;;10.23;;
23402;SDS011;11874;48.228;11.684;2023-12-04T10:13:22;20.25;;;10.20;;
23402;SDS011;11874;48.228;11.684;2023-12-04T10:16:11;18.67;;;10.07;;
23402;SDS011;11874;48.228;11.684;2023-12-04T10:18:39;23.98;;;10.70;;
23402;SDS011;11874;48.228;11.684;2023-12-04T10:21:09;17.27;;;9.82;;
23402;SDS011;11874;48.228;11.684;2023-12-04T10:23:45;17.92;;;9.88;;
23402;SDS011;11874;48.228;11.684;2023-12-04T10:26:14;19.70;;;10.45;;
23402;SDS011;11874;48.228;11.684;2023-12-04T10:28:44;20.42;;;10.13;;
23402;SDS011;11874;48.228;11.684;2023-12-04T10:31:26;21.92;;;10.27;;
23402;SDS011;11874;48.228;11.684;2023-12-04T10:33:54;22.95;;;10.90;;
23402;SDS011;11874;48.228;11.684;2023-12-04T10:36:24;21.08;;;9.40;;
23402;SDS011;11874;48.228;11.684;2023-12-04T10:38:57;19.77;;;10.32;;
23402;SDS011;11874;48.228;11.684;2023-12-04T10:41:26;18.83;;;8.52;;
23402;SDS011;11874;48.228;11.684;2023-12-04T10:43:55;19.38;;;10.52;;
23402;SDS011;11874;48.228;11.684;2023-12-04T10:46:35;23.58;;;10.10;;
23402;SDS011;11874;48.228;11.684;2023-12-04T10:49:04;21.25;;;10.52;;
23402;SDS011;11874;48.228;11.684;2023-12-04T10:51:36;22.75;;;10.27;;
23402;SDS011;11874;48.228;11.684;2023-12-04T10:54:05;20.05;;;10.25;;
23402;SDS011;11874;48.228;11.684;2023-12-04T10:56:35;20.63;;;9.52;;
23402;SDS011;11874;48.228;11.684;2023-12-04T10:59:06;20.80;;;9.02;;
23402;SDS011;11874;48.228;11.684;2023-12-04T11:01:38;16.65;;;8.82;;
23402;SDS011;11874;48.228;11.684;2023-12-04T11:04:09;21.98;;;10.30;;
23402;SDS011;11874;48.228;11.684;2023-12-04T11:06:45;20.40;;;9.07;;
23402;SDS011;11874;48.228;11.684;2023-12-04T11:09:18;23.30;;;10.10;;
23402;SDS011;11874;48.228;11.684;2023-12-04T11:11:53;21.05;;;11.05;;
23402;SDS011;11874;48.228;11.684;2023-12-04T11:14:25;17.00;;;9.50;;
23402;SDS011;11874;48.228;11.684;2023-12-04T11:17:01;22.55;;;10.98;;
23402;SDS011;11874;48.228;11.684;2023-12-04T11:19:35;25.80;;;11.00;;
23402;SDS011;11874;48.228;11.684;2023-12-04T11:22:13;20.35;;;10.82;;
23402;SDS011;11874;48.228;11.684;2023-12-04T11:24:44;22.85;;;10.98;;
23402;SDS011;11874;48.228;11.684;2023-12-04T11:27:12;21.10;;;10.90;;
23402;SDS011;11874;48.228;11.684;2023-12-04T11:29:40;24.90;;;11.23;;
23402;SDS011;11874;48.228;11.684;2023-12-04T11:32:12;27.05;;;12.05;;
23402;SDS011;11874;48.228;11.684;2023-12-04T11:34:48;20.67;;;11.05;;
23402;SDS011;11874;48.228;11.684;2023-12-04T11:37:19;24.17;;;11.80;;
23402;SDS011;11874;48.228;11.684;2023-12-04T11:39:47;24.27;;;11.80;;
23402;SDS011;11874;48.228;11.684;2023-12-04T11:42:18;19.38;;;10.60;;
23402;SDS011;11874;48.228;11.684;2023-12-04T11:44:48;20.85;;;10.68;;
23402;SDS011;11874;48.228;11.684;2023-12-04T11:47:16;24.08;;;12.18;;
23402;SDS011;11874;48.228;11.684;2023-12-04T11:49:45;20.05;;;10.52;;
23402;SDS011;11874;48.228;11.684;2023-12-04T11:52:14;22.35;;;11.60;;
23402;SDS011;11874;48.228;11.684;2023-12-04T11:54:56;19.20;;;10.55;;
23402;SDS011;11874;48.228;11.684;2023-12-04T11:57:26;26.60;;;11.27;;
23402;SDS011;11874;48.228;11.684;2023-12-04T12:00:08;20.95;;;10.80;;
23402;SDS011;11874;48.228;11.684;2023-12-04T12:02:38;20.88;;;11.45;;
23402;SDS011;11874;48.228;11.684;2023-12-04T12:05:28;20.98;;;10.52;;
23402;SDS011;11874;48.228;11.684;2023-12-04T12:07:56;25.38;;;12.05;;
23402;SDS011;11874;48.228;11.684;2023-12-04T12:10:28;22.73;;;11.73;;
23402;SDS011;11874;48.228;11.684;2023-12-04T12:12:57;23.50;;;11.55;;
23402;SDS011;11874;48.228;11.684;2023-12-04T12:15:25;23.40;;;12.60;;
23402;SDS011;11874;48.228;11.684;2023-12-04T12:17:53;21.20;;;10.60;;
23402;SDS011;11874;48.228;11.684;2023-12-04T12:20:23;24.60;;;11.63;;
23402;SDS011;11874;48.228;11.684;2023-12-04T12:22:51;21.25;;;10.75;;
23402;SDS011;11874;48.228;11.684;2023-12-04T12:25:20;23.90;;;12.02;;
23402;SDS011;11874;48.228;11.684;2023-12-04T12:27:50;22.60;;;11.25;;
23402;SDS011;11874;48.228;11.684;2023-12-04T12:30:19;26.38;;;12.60;;
23402;SDS011;11874;48.228;11.684;2023-12-04T12:32:47;24.83;;;11.93;;
23402;SDS011;11874;48.228;11.684;2023-12-04T12:35:17;24.83;;;11.60;;
23402;SDS011;11874;48.228;11.684;2023-12-04T12:37:47;24.17;;;11.70;;
23402;SDS011;11874;48.228;11.684;2023-12-04T12:40:16;23.48;;;13.20;;
23402;SDS011;11874;48.228;11.684;2023-12-04T12:42:44;25.08;;;12.85;;
23402;SDS011;11874;48.228;11.684;2023-12-04T12:45:13;21.08;;;11.52;;
23402;SDS011;11874;48.228;11.684;2023-12-04T12:47:42;26.17;;;12.55;;
23402;SDS011;11874;48.228;11.684;2023-12-04T12:50:11;22.77;;;11.57;;
23402;SDS011;11874;48.228;11.684;2023-12-04T12:52:42;26.35;;;12.63;;
23402;SDS011;11874;48.228;11.684;2023-12-04T12:55:12;22.88;;;10.60;;
23402;SDS011;11874;48.228;11.684;2023-12-04T12:57:50;28.92;;;13.60;;
23402;SDS011;11874;48.228;11.684;2023-12-04T13:00:21;22.15;;;11.82;;
23402;SDS011;11874;48.228;11.684;2023-12-04T13:02:51;21.40;;;11.75;;
23402;SDS011;11874;48.228;11.684;2023-12-04T13:05:21;22.83;;;12.10;;
23402;SDS011;11874;48.228;11.684;2023-12-04T13:07:49;23.80;;;11.88;;
23402;SDS011;11874;48.228;11.684;2023-12-04T13:10:17;27.63;;;12.45;;
23402;SDS011;11874;48.228;11.684;2023-12-04T13:12:45;23.13;;;11.93;;
23402;SDS011;11874;48.228;11.684;2023-12-04T13:15:13;21.70;;;10.88;;
23402;SDS011;11874;48.228;11.684;2023-12-04T13:17:44;21.77;;;10.73;;
23402;SDS011;11874;48.228;11.684;2023-12-04T13:20:13;23.08;;;11.48;;
23402;SDS011;11874;48.228;11.684;2023-12-04T13:22:42;26.02;;;12.48;;
23402;SDS011;11874;48.228;11.684;2023-12-04T13:25:10;24.10;;;11.63;;
23402;SDS011;11874;48.228;11.684;2023-12-04T13:27:38;23.20;;;11.77;;
23402;SDS011;11874;48.228;11.684;2023-12-04T13:30:07;23.73;;;12.20;;
23402;SDS011;11874;48.228;11.684;2023-12-04T13:32:37;22.15;;;11.77;;
23402;SDS011;11874;48.228;11.684;2023-12-04T13:35:08;22.67;;;12.10;;
23402;SDS011;11874;48.228;11.684;2023-12-04T13:37:38;21.48;;;11.07;;
23402;SDS011;11874;48.228;11.684;2023-12-04T13:40:07;18.17;;;9.00;;
23402;SDS011;11874;48.228;11.684;2023-12-04T13:42:39;20.92;;;11.52;;
23402;SDS011;11874;48.228;11.684;2023-12-04T13:45:36;24.58;;;11.27;;
23402;SDS011;11874;48.228;11.684;2023-12-04T13:48:04;23.60;;;12.40;;
23402;SDS011;11874;48.228;11.684;2023-12-04T13:50:34;26.23;;;11.75;;
23402;SDS011;11874;48.228;11.684;2023-12-04T13:53:02;16.70;;;8.85;;
23402;SDS011;11874;48.228;11.684;2023-12-04T13:55:32;25.23;;;13.07;;
23402;SDS011;11874;48.228;11.684;2023-12-04T13:58:14;23.65;;;12.60;;
23402;SDS011;11874;48.228;11.684;2023-12-04T14:01:04;21.95;;;11.80;;
23402;SDS011;11874;48.228;11.684;2023-12-04T14:03:41;23.65;;;12.68;;
23402;SDS011;11874;48.228;11.684;2023-12-04T14:06:12;22.90;;;12.13;;
23402;SDS011;11874;48.228;11.684;2023-12-04T14:08:42;20.52;;;10.85;;
23402;SDS011;11874;48.228;11.684;2023-12-04T14:11:12;18.15;;;9.85;;
23402;SDS011;11874;48.228;11.684;2023-12-04T14:13:41;22.83;;;11.57;;
23402;SDS011;11874;48.228;11.684;2023-12-04T14:16:09;23.85;;;10.90;;
23402;SDS011;11874;48.228;11.684;2023-12-04T14:18:37;24.65;;;12.25;;
23402;SDS011;11874;48.228;11.684;2023-12-04T14:21:06;23.77;;;11.88;;
23402;SDS011;11874;48.228;11.684;2023-12-04T14:23:36;25.60;;;12.20;;
23402;SDS011;11874;48.228;11.684;2023-12-04T14:26:04;23.67;;;11.70;;
23402;SDS011;11874;48.228;11.684;2023-12-04T14:28:32;22.45;;;11.25;;
23402;SDS011;11874;48.228;11.684;2023-12-04T14:31:08;19.98;;;11.27;;
23402;SDS011;11874;48.228;11.684;2023-12-04T14:33:37;22.67;;;11.88;;